Flight Number: EUR2030 Duration: 3:30
Departure: Reykjavik (BIRK) at 18:15 Distance: 1445 Nm
Arrival: Munich Int'l (EDDM) at 21:45 Equipment: B737

Weather Information
Reykjavik, Iceland (BIRK) 64-08N 021-54W 61M Jan 23, 2018 - 04:00 AM EST / 2018.01.23 0900 UTC
Wind: from the ENE (070 degrees) at 12 MPH (10 KT):0
Visibility: greater than 7 mile(s):0
Sky conditions: mostly cloudy Temperature: 35 F (2 C)
Windchill: 26 F (-3 C):1 Dew Point: 30 F (-1 C) Relative Humidity: 80% Pressure (altimeter): 29.00 in. Hg (0982 hPa)
ob: BIRK 230900Z 07010KT 9999 FEW013 SCT059 BKN120 02/M01 Q0982 R13/390153 cycle: 9
Sunrise: 10:40 Sunset: 16:39 (UTC)

Munchen, Germany (EDDM) 48-21N 011-47E Jan 23, 2018 - 04:20 AM EST / 2018.01.23 0920 UTC
Wind: from the W (260 degrees) at 10 MPH (9 KT):0
Visibility: greater than 7 mile(s):0
Sky conditions: mostly cloudy Temperature: 39 F (4 C) Dew Point: 33 F (1 C) Relative Humidity: 80% Pressure (altimeter): 30.30 in. Hg (1026 hPa)
ob: EDDM 230920Z 26009KT 9999 FEW037 BKN050 04/01 Q1026 R88/290095 NOSIG cycle: 9
Sunrise: 06:55 Sunset: 15:54 (UTC)

TAF:2018/01/23 06:27 TAF EDDM 230500Z 2306/2412 27009KT 9999 BKN040 BECMG 2314/2316 21003KT

Previous Pireps for this route
Date Aircraft Flight time Fuel used Landing rate On time
2013-01-27B7373.10198660No
2014-01-17B73704.3733433-310No
2015-01-02B73703.4818833-179Charter
(pireps marked green are flown by you)

Route map